Time;durP1;ratioP1;P1;durP2;ratioP2;P2;SDS_P1;SDS_P2;PMS_P1;PMS_P2;Temp;Humidity;BMP_temperature;BMP_pressure;BME280_temperature;BME280_humidity;BME280_pressure;Samples;Min_cycle;Max_cycle;Signal;HPM_P1;HPM_P2
2022/11/10 00:01:12;;;;;;;102.40;50.30;;;;;;;4.27;97.64;98565.83;102863;1310;22635;-72
2022/11/10 00:03:57;;;;;;;94.50;49.10;;;;;;;4.27;98.10;98572.46;102813;1310;138498;-72
2022/11/10 00:06:43;;;;;;;93.00;47.50;;;;;;;4.27;98.21;98578.02;103046;1297;22468;-71
2022/11/10 00:09:28;;;;;;;97.70;47.90;;;;;;;4.27;98.29;98576.81;102975;1305;22942;-72
2022/11/10 00:12:13;;;;;;;102.10;49.10;;;;;;;4.27;98.16;98582.08;103010;1310;22471;-72
2022/11/10 00:18:04;;;;;;;92.70;46.20;;;;;;;4.24;98.49;98580.77;102924;1310;139181;-71
2022/11/10 00:20:48;;;;;;;85.30;43.20;;;;;;;4.24;98.47;98582.10;102981;1310;22689;-73
2022/11/10 00:23:36;;;;;;;90.70;46.70;;;;;;;4.23;98.51;98585.29;102943;1310;138287;-72
2022/11/10 00:26:21;;;;;;;83.40;44.50;;;;;;;4.22;98.55;98587.56;102915;1310;24376;-71
2022/11/10 00:29:06;;;;;;;90.00;45.00;;;;;;;4.19;98.72;98581.05;102948;1291;138076;-73
2022/11/10 00:31:53;;;;;;;78.90;41.00;;;;;;;4.16;98.54;98579.83;102913;1299;25338;-75
2022/11/10 00:34:38;;;;;;;78.60;41.40;;;;;;;4.14;98.51;98585.29;102791;1310;138129;-72
2022/11/10 00:37:23;;;;;;;85.00;40.30;;;;;;;4.13;98.65;98584.63;106437;1310;22256;-73
2022/11/10 00:40:09;;;;;;;73.90;39.20;;;;;;;4.11;98.89;98590.26;103065;1310;138258;-72
2022/11/10 00:42:57;;;;;;;58.80;34.60;;;;;;;4.10;98.88;98591.49;103077;1310;25760;-71
2022/11/10 00:45:43;;;;;;;74.50;39.50;;;;;;;4.08;98.91;98594.73;103157;1309;22610;-71
2022/11/10 00:48:28;;;;;;;70.20;37.70;;;;;;;4.07;98.96;98585.33;103013;1304;24250;-72
2022/11/10 00:51:35;;;;;;;66.50;35.50;;;;;;;4.06;99.06;98590.52;103132;1297;22474;-72
2022/11/10 00:54:23;;;;;;;70.60;40.20;;;;;;;4.04;98.95;98595.81;103077;1310;22486;-72
2022/11/10 00:57:08;;;;;;;70.70;35.50;;;;;;;4.02;98.84;98595.20;102576;1285;1026832;-72
2022/11/10 00:59:56;;;;;;;68.20;37.50;;;;;;;4.02;99.22;98598.80;102927;1298;138446;-72
2022/11/10 01:02:41;;;;;;;60.10;34.80;;;;;;;4.01;99.13;98594.95;102987;1285;22477;-72
2022/11/10 01:05:26;;;;;;;79.50;39.00;;;;;;;3.99;98.95;98597.34;102864;1310;138040;-72
2022/11/10 01:08:11;;;;;;;69.20;38.10;;;;;;;3.99;99.12;98599.33;102934;1310;22699;-72
2022/11/10 01:11:12;;;;;;;67.30;37.40;;;;;;;3.99;99.22;98602.93;102878;1310;138085;-73
2022/11/10 01:13:57;;;;;;;68.60;39.50;;;;;;;3.99;99.18;98604.55;102977;1310;25340;-72
2022/11/10 01:16:42;;;;;;;69.20;38.30;;;;;;;3.98;99.16;98606.20;103028;1310;138451;-72
2022/11/10 01:19:29;;;;;;;70.10;39.00;;;;;;;3.98;99.33;98609.68;103033;1310;24219;-71
2022/11/10 01:22:14;;;;;;;84.20;39.20;;;;;;;3.98;99.45;98600.48;102975;1310;138258;-72
2022/11/10 01:24:59;;;;;;;61.10;34.90;;;;;;;3.99;99.75;98595.55;103256;1299;22556;-72
2022/11/10 01:27:44;;;;;;;65.90;34.30;;;;;;;3.99;99.73;98597.30;103233;1310;22907;-72
2022/11/10 01:30:29;;;;;;;66.30;35.30;;;;;;;4.01;100.00;98598.50;103106;1310;22478;-70
2022/11/10 01:33:17;;;;;;;72.00;36.90;;;;;;;4.04;99.99;98603.49;103009;1310;22566;-70
2022/11/10 01:36:04;;;;;;;69.80;36.90;;;;;;;4.07;100.00;98605.46;102984;1310;138092;-71
2022/11/10 01:38:48;;;;;;;68.50;34.40;;;;;;;4.11;100.00;98617.89;103051;1310;24240;-71
2022/11/10 01:41:37;;;;;;;77.40;38.10;;;;;;;4.15;100.00;98624.06;102946;1310;138377;-70
2022/11/10 01:44:23;;;;;;;76.00;37.30;;;;;;;4.18;100.00;98630.77;103060;1310;22467;-70
2022/11/10 01:47:08;;;;;;;77.10;36.90;;;;;;;4.21;100.00;98625.05;102976;1310;138342;-72
2022/11/10 01:49:53;;;;;;;65.40;35.00;;;;;;;4.22;100.00;98623.45;103037;1310;22616;-71
2022/11/10 01:52:41;;;;;;;67.00;36.30;;;;;;;4.23;100.00;98619.34;102868;1291;138435;-72
2022/11/10 01:55:27;;;;;;;67.20;36.40;;;;;;;4.23;100.00;98624.89;103196;1309;22474;-71
2022/11/10 01:58:15;;;;;;;68.90;36.20;;;;;;;4.25;100.00;98629.42;102904;1289;138804;-71
2022/11/10 02:01:03;;;;;;;67.20;35.50;;;;;;;4.28;100.00;98633.71;103079;1302;22462;-72
2022/11/10 02:04:11;;;;;;;63.80;34.50;;;;;;;4.29;100.00;98636.20;102993;1295;22909;-71
2022/11/10 02:06:58;;;;;;;63.30;35.50;;;;;;;4.28;100.00;98643.70;102985;1304;22737;-72
2022/11/10 02:09:43;;;;;;;85.30;35.70;;;;;;;4.28;100.00;98642.17;103031;1301;24350;-70
2022/11/10 02:12:38;;;;;;;67.20;36.00;;;;;;;4.29;100.00;98640.77;103088;1288;25388;-73
2022/11/10 02:15:23;;;;;;;61.10;33.60;;;;;;;4.29;100.00;98638.50;102973;1291;24200;-72
2022/11/10 02:18:07;;;;;;;60.50;33.90;;;;;;;4.30;100.00;98640.06;102880;1310;138313;-70
2022/11/10 02:20:55;;;;;;;71.70;37.30;;;;;;;4.31;100.00;98641.02;102857;1308;22561;-71
2022/11/10 02:23:44;;;;;;;77.80;38.40;;;;;;;4.32;100.00;98647.14;102863;1313;138273;-74
2022/11/10 02:26:29;;;;;;;70.80;35.90;;;;;;;4.32;100.00;98653.05;102872;1281;22491;-72
2022/11/10 02:29:14;;;;;;;63.80;34.10;;;;;;;4.33;100.00;98649.25;102763;1312;138453;-71
2022/11/10 02:31:59;;;;;;;67.80;36.70;;;;;;;4.35;100.00;98649.42;102885;1312;25360;-73
2022/11/10 02:34:44;;;;;;;68.50;35.40;;;;;;;4.36;100.00;98657.77;102786;1287;138392;-72
2022/11/10 02:37:34;;;;;;;74.40;36.60;;;;;;;4.36;100.00;98663.16;102940;1303;24361;-71
2022/11/10 02:40:19;;;;;;;67.10;34.20;;;;;;;4.36;100.00;98668.22;102788;1310;139531;-73
2022/11/10 02:43:07;;;;;;;62.70;35.10;;;;;;;4.36;100.00;98668.02;102933;1287;22478;-72
2022/11/10 02:45:55;;;;;;;63.80;34.50;;;;;;;4.36;100.00;98666.22;102999;1310;22515;-71
2022/11/10 02:48:40;;;;;;;65.30;35.50;;;;;;;4.37;100.00;98663.22;102911;1313;22485;-71
2022/11/10 02:51:25;;;;;;;65.50;34.90;;;;;;;4.38;100.00;98656.74;102783;1307;25367;-71
2022/11/10 02:54:10;;;;;;;61.50;32.70;;;;;;;4.40;100.00;98660.52;102772;1310;138407;-71
2022/11/10 02:56:55;;;;;;;64.10;33.90;;;;;;;4.41;100.00;98661.86;102843;1296;22480;-71
2022/11/10 02:59:41;;;;;;;66.70;36.10;;;;;;;4.41;100.00;98658.99;102798;1310;139857;-72
2022/11/10 03:02:26;;;;;;;64.60;35.70;;;;;;;4.41;100.00;98664.19;102891;1310;24523;-71
2022/11/10 03:05:11;;;;;;;65.10;35.00;;;;;;;4.41;100.00;98665.13;102893;1295;138929;-74
2022/11/10 03:08:01;;;;;;;64.30;34.20;;;;;;;4.41;100.00;98663.69;102911;1306;22713;-73
2022/11/10 03:10:46;;;;;;;60.80;32.00;;;;;;;4.40;100.00;98663.77;102812;1310;138459;-72
2022/11/10 03:13:31;;;;;;;66.20;34.50;;;;;;;4.40;100.00;98664.17;102865;1310;22483;-71
2022/11/10 03:16:21;;;;;;;66.80;34.40;;;;;;;4.38;100.00;98659.05;102862;1296;138727;-70
2022/11/10 03:19:08;;;;;;;62.50;34.10;;;;;;;4.38;100.00;98662.71;102979;1310;22480;-72
2022/11/10 03:21:53;;;;;;;76.50;32.80;;;;;;;4.37;100.00;98668.57;102968;1310;22530;-72
2022/11/10 03:24:38;;;;;;;60.80;33.10;;;;;;;4.37;100.00;98673.48;102981;1310;25338;-73
2022/11/10 03:27:23;;;;;;;55.30;32.30;;;;;;;4.36;100.00;98675.89;102944;1291;24465;-71
2022/11/10 03:30:09;;;;;;;61.50;32.20;;;;;;;4.36;100.00;98679.71;101329;1305;1998236;-74
2022/11/10 03:32:56;;;;;;;67.60;34.70;;;;;;;4.36;100.00;98678.60;102922;1312;24418;-72
2022/11/10 03:35:41;;;;;;;58.70;31.00;;;;;;;4.37;100.00;98679.39;102928;1304;138275;-71
2022/11/10 03:38:26;;;;;;;57.00;31.80;;;;;;;4.37;100.00;98677.77;102988;1306;22507;-71
2022/11/10 03:41:11;;;;;;;60.20;32.40;;;;;;;4.37;100.00;98684.70;102802;1302;138333;-71
2022/11/10 03:43:56;;;;;;;62.40;32.40;;;;;;;4.38;100.00;98689.85;102949;1310;25561;-73
2022/11/10 03:46:41;;;;;;;66.20;33.40;;;;;;;4.41;100.00;98693.34;102753;1310;138751;-73
2022/11/10 03:49:26;;;;;;;66.00;32.60;;;;;;;4.42;100.00;98691.11;102947;1310;22588;-70
2022/11/10 03:52:11;;;;;;;70.40;35.30;;;;;;;4.45;100.00;98689.38;102938;1307;22541;-71
2022/11/10 03:54:56;;;;;;;76.90;35.90;;;;;;;4.48;100.00;98687.16;102909;1300;22477;-72
2022/11/10 03:57:41;;;;;;;72.20;33.70;;;;;;;4.51;100.00;98688.25;102890;1310;22476;-72
2022/11/10 04:00:26;;;;;;;78.10;34.90;;;;;;;4.52;100.00;98696.13;102839;1291;138215;-72
2022/11/10 04:03:10;;;;;;;73.50;35.00;;;;;;;4.54;100.00;98696.90;103140;1291;22456;-72
2022/11/10 04:09:05;;;;;;;72.30;35.30;;;;;;;4.60;100.00;98699.45;102712;1310;22465;-71
2022/11/10 04:15:55;;;;;;;82.80;36.20;;;;;;;4.69;100.00;98700.70;102965;1307;22911;-73
2022/11/10 04:18:25;;;;;;;69.60;32.80;;;;;;;4.74;100.00;98701.55;102822;1308;138486;-74
2022/11/10 04:21:11;;;;;;;73.80;34.90;;;;;;;4.77;100.00;98702.73;103022;1310;22550;-72
2022/11/10 04:23:56;;;;;;;76.80;36.30;;;;;;;4.80;100.00;98705.42;102866;1295;138181;-71
2022/11/10 04:26:42;;;;;;;74.80;34.80;;;;;;;4.84;100.00;98708.17;102852;1302;25328;-71
2022/11/10 04:29:27;;;;;;;76.10;35.80;;;;;;;4.87;100.00;98711.52;103026;1297;138223;-71
2022/11/10 04:32:12;;;;;;;79.50;36.10;;;;;;;4.90;100.00;98709.66;102865;1310;25613;-72
2022/11/10 04:34:57;;;;;;;74.60;34.90;;;;;;;4.93;100.00;98703.61;102912;1305;138437;-73
2022/11/10 04:37:41;;;;;;;72.60;35.40;;;;;;;4.95;100.00;98703.83;102968;1309;24357;-71
2022/11/10 04:40:28;;;;;;;77.70;34.90;;;;;;;4.98;100.00;98708.48;102790;1310;138421;-72
2022/11/10 04:43:15;;;;;;;76.90;34.70;;;;;;;5.02;100.00;98707.13;102966;1298;25356;-71
2022/11/10 04:46:00;;;;;;;75.10;37.30;;;;;;;5.05;100.00;98708.41;102860;1302;23003;-71
2022/11/10 04:48:45;;;;;;;81.30;35.10;;;;;;;5.09;100.00;98704.86;102932;1295;22474;-71
2022/11/10 04:51:36;;;;;;;84.90;36.50;;;;;;;5.14;100.00;98709.11;102903;1304;24414;-70
2022/11/10 04:54:21;;;;;;;81.70;37.70;;;;;;;5.19;100.00;98708.71;103741;1284;138704;-73
2022/11/10 04:57:06;;;;;;;81.40;38.90;;;;;;;5.23;100.00;98715.41;103096;1310;22474;-71
2022/11/10 04:59:51;;;;;;;75.90;36.00;;;;;;;5.27;100.00;98718.66;102832;1298;138447;-71
2022/11/10 05:02:37;;;;;;;77.20;36.90;;;;;;;5.30;100.00;98728.30;102904;1310;25996;-71
2022/11/10 05:05:22;;;;;;;72.60;34.40;;;;;;;5.33;100.00;98733.22;102760;1310;138246;-71
2022/11/10 05:08:08;;;;;;;73.10;34.90;;;;;;;5.36;100.00;98736.96;102873;1302;22525;-72
2022/11/10 05:10:53;;;;;;;83.00;37.30;;;;;;;5.38;100.00;98744.60;102894;1307;138523;-71
2022/11/10 05:13:39;;;;;;;75.50;34.40;;;;;;;5.40;100.00;98748.23;102842;1313;22971;-72
2022/11/10 05:16:26;;;;;;;83.00;37.50;;;;;;;5.44;100.00;98756.25;102883;1309;138373;-72
2022/11/10 05:19:11;;;;;;;76.80;36.90;;;;;;;5.46;100.00;98753.56;102924;1304;23563;-72
2022/11/10 05:21:56;;;;;;;74.10;37.10;;;;;;;5.48;100.00;98749.12;102915;1288;22483;-72
2022/11/10 05:24:41;;;;;;;71.70;34.70;;;;;;;5.51;100.00;98748.91;102916;1286;138142;-72
2022/11/10 05:27:26;;;;;;;74.70;35.10;;;;;;;5.54;100.00;98747.79;102983;1281;23911;-72
2022/11/10 05:30:11;;;;;;;77.10;34.20;;;;;;;5.55;100.00;98757.67;102856;1298;138320;-73
2022/11/10 05:32:56;;;;;;;75.40;35.30;;;;;;;5.56;100.00;98764.34;102868;1310;22479;-72
2022/11/10 05:35:41;;;;;;;75.10;35.50;;;;;;;5.57;100.00;98767.24;102868;1310;138280;-72
2022/11/10 05:38:26;;;;;;;75.30;36.90;;;;;;;5.59;100.00;98767.05;102898;1313;24047;-71
2022/11/10 05:41:11;;;;;;;73.30;35.50;;;;;;;5.60;100.00;98769.17;102841;1310;138317;-74
2022/11/10 05:43:56;;;;;;;70.90;37.00;;;;;;;5.61;100.00;98773.05;102905;1310;24270;-73
2022/11/10 05:46:41;;;;;;;80.10;37.30;;;;;;;5.64;100.00;98783.34;102788;1310;138413;-73
2022/11/10 05:49:26;;;;;;;76.70;36.40;;;;;;;5.65;100.00;98775.15;102906;1297;23871;-72
2022/11/10 05:52:11;;;;;;;74.10;36.40;;;;;;;5.67;100.00;98781.56;102975;1297;22471;-72
2022/11/10 05:54:56;;;;;;;74.30;36.30;;;;;;;5.68;100.00;98787.27;102928;1294;22524;-71
2022/11/10 05:57:43;;;;;;;72.40;37.40;;;;;;;5.69;100.00;98793.54;102884;1304;22526;-73
2022/11/10 06:00:30;;;;;;;78.70;36.30;;;;;;;5.70;100.00;98796.88;102802;1310;138234;-73
2022/11/10 06:03:17;;;;;;;74.90;34.70;;;;;;;5.71;100.00;98805.36;102946;1294;22494;-72
2022/11/10 06:06:02;;;;;;;79.00;38.60;;;;;;;5.74;100.00;98810.63;102876;1310;138294;-74
2022/11/10 06:08:46;;;;;;;77.50;38.10;;;;;;;5.75;100.00;98817.50;102966;1310;25288;-73
2022/11/10 06:11:32;;;;;;;75.70;38.20;;;;;;;5.77;100.00;98821.17;102828;1283;138421;-75
2022/11/10 06:14:16;;;;;;;81.30;39.30;;;;;;;5.79;100.00;98827.81;102902;1310;22482;-74
2022/11/10 06:17:01;;;;;;;74.40;37.20;;;;;;;5.80;100.00;98834.09;102843;1305;138459;-72
2022/11/10 06:19:46;;;;;;;81.80;38.30;;;;;;;5.81;100.00;98831.94;102867;1302;22891;-72
2022/11/10 06:22:31;;;;;;;77.50;37.00;;;;;;;5.83;100.00;98839.59;102822;1304;138455;-70
2022/11/10 06:25:15;;;;;;;78.40;37.00;;;;;;;5.86;100.00;98842.88;102946;1304;25395;-72
2022/11/10 06:28:01;;;;;;;83.90;35.10;;;;;;;5.88;100.00;98848.87;102912;1305;25269;-72
2022/11/10 06:30:46;;;;;;;72.60;34.20;;;;;;;5.92;100.00;98851.50;102959;1301;137981;-72
2022/11/10 06:33:31;;;;;;;79.20;36.10;;;;;;;5.96;100.00;98853.35;103091;1295;25301;-72
2022/11/10 06:36:16;;;;;;;74.50;35.50;;;;;;;6.00;100.00;98865.90;102978;1310;138245;-72
2022/11/10 06:39:01;;;;;;;79.20;35.60;;;;;;;6.05;100.00;98872.80;103067;1310;24339;-72
2022/11/10 06:41:46;;;;;;;68.80;34.20;;;;;;;6.09;100.00;98878.09;103016;1310;138265;-72
2022/11/10 06:44:31;;;;;;;74.70;36.50;;;;;;;6.12;100.00;98881.84;103048;1310;24371;-72
2022/11/10 06:47:16;;;;;;;70.40;35.20;;;;;;;6.15;100.00;98886.38;102948;1288;138456;-72
2022/11/10 06:50:01;;;;;;;71.90;35.80;;;;;;;6.17;100.00;98890.09;102968;1305;24350;-71
2022/11/10 06:52:53;;;;;;;77.40;35.80;;;;;;;6.19;100.00;98892.71;102817;1310;138400;-72
2022/11/10 06:55:38;;;;;;;73.40;33.10;;;;;;;6.22;100.00;98898.79;103128;1310;25233;-72
2022/11/10 06:58:23;;;;;;;72.80;34.40;;;;;;;6.27;100.00;98894.92;103107;1310;22605;-71
2022/11/10 07:01:09;;;;;;;73.90;32.70;;;;;;;6.39;100.00;98898.98;103034;1303;23319;-72
2022/11/10 07:03:54;;;;;;;73.50;33.40;;;;;;;6.53;100.00;98902.11;103053;1310;24294;-72
2022/11/10 07:06:39;;;;;;;71.30;32.50;;;;;;;6.62;100.00;98910.09;102843;1313;138282;-72
2022/11/10 07:09:24;;;;;;;69.80;33.40;;;;;;;6.69;100.00;98920.02;103189;1298;22529;-72
2022/11/10 07:12:09;;;;;;;72.30;31.40;;;;;;;6.73;100.00;98919.21;103230;1297;138309;-71
2022/11/10 07:14:54;;;;;;;70.80;32.20;;;;;;;6.81;100.00;98920.16;103070;1305;26086;-72
2022/11/10 07:17:40;;;;;;;65.90;32.10;;;;;;;6.87;100.00;98921.88;103065;1302;138247;-72
2022/11/10 07:20:25;;;;;;;69.40;32.70;;;;;;;6.91;100.00;98927.61;103209;1310;25638;-72
2022/11/10 07:23:10;;;;;;;74.80;33.70;;;;;;;6.95;100.00;98930.52;103072;1303;138418;-72
2022/11/10 07:25:58;;;;;;;73.20;32.50;;;;;;;6.97;100.00;98931.86;103115;1310;24337;-71
2022/11/10 07:28:43;;;;;;;71.80;30.90;;;;;;;6.99;100.00;98932.41;102987;1303;138844;-72
2022/11/10 07:31:29;;;;;;;76.60;36.50;;;;;;;7.00;100.00;98929.56;103164;1295;23461;-71
2022/11/10 07:34:14;;;;;;;72.80;34.40;;;;;;;7.02;100.00;98936.55;103068;1303;22483;-71
2022/11/10 07:36:59;;;;;;;69.60;31.00;;;;;;;7.04;100.00;98943.52;103280;1305;25214;-71
2022/11/10 07:39:43;;;;;;;76.60;34.80;;;;;;;7.06;100.00;98945.93;103022;1310;22525;-71
2022/11/10 07:42:28;;;;;;;67.00;30.70;;;;;;;7.07;100.00;98948.68;102979;1301;138453;-71
2022/11/10 07:45:13;;;;;;;79.20;33.70;;;;;;;7.09;100.00;98955.34;103026;1310;22462;-71
2022/11/10 07:48:00;;;;;;;70.30;31.80;;;;;;;7.11;100.00;98958.66;102953;1307;138278;-71
2022/11/10 07:50:45;;;;;;;69.30;32.60;;;;;;;7.11;100.00;98956.52;103017;1303;22511;-71
2022/11/10 07:53:30;;;;;;;72.10;34.20;;;;;;;7.11;100.00;98958.63;102936;1299;138259;-71
2022/11/10 07:56:15;;;;;;;70.60;34.90;;;;;;;7.12;100.00;98963.38;103033;1310;22895;-70
2022/11/10 07:59:00;;;;;;;67.60;30.90;;;;;;;7.14;100.00;98965.88;102800;1310;138480;-71
2022/11/10 08:01:45;;;;;;;68.40;34.50;;;;;;;7.20;100.00;98967.83;102993;1310;22610;-72
2022/11/10 08:04:33;;;;;;;75.70;36.20;;;;;;;7.24;100.00;98974.48;102939;1301;22470;-72
2022/11/10 08:07:20;;;;;;;72.30;34.90;;;;;;;7.27;100.00;98976.27;102955;1310;22469;-72
2022/11/10 08:10:09;;;;;;;71.70;34.30;;;;;;;7.29;100.00;98980.31;102989;1297;22467;-71
2022/11/10 08:12:58;;;;;;;72.20;34.00;;;;;;;7.31;100.00;98987.31;102799;1295;138176;-71
2022/11/10 08:15:43;;;;;;;77.30;37.50;;;;;;;7.32;100.00;98988.77;102938;1310;22480;-74
2022/11/10 08:18:32;;;;;;;78.30;36.50;;;;;;;7.34;100.00;98991.02;103000;1300;138332;-72
2022/11/10 08:21:21;;;;;;;;;;;;;;;7.35;100.00;98993.23;103046;1310;22465;-70
2022/11/10 08:24:26;;;;;;;76.70;34.10;;;;;;;7.36;100.00;99001.02;103021;1310;124562;-71
2022/11/10 08:27:11;;;;;;;70.20;33.50;;;;;;;7.37;100.00;99003.94;102954;1304;22841;-73
2022/11/10 08:29:57;;;;;;;71.10;34.10;;;;;;;7.40;100.00;99003.73;102897;1307;139207;-71
2022/11/10 08:32:42;;;;;;;78.50;36.10;;;;;;;7.49;100.00;99004.92;103020;1310;24291;-72
2022/11/10 08:35:30;;;;;;;76.10;34.50;;;;;;;7.54;100.00;99011.05;103274;1305;138333;-72
2022/11/10 08:38:26;;;;;;;71.50;33.60;;;;;;;7.57;100.00;99010.95;102912;1310;25354;-72
2022/11/10 08:41:13;;;;;;;72.20;33.30;;;;;;;7.63;100.00;99014.18;102903;1308;138588;-72
2022/11/10 08:43:58;;;;;;;72.00;32.70;;;;;;;7.68;100.00;99016.80;102991;1298;22454;-71
2022/11/10 08:46:45;;;;;;;74.20;32.60;;;;;;;7.71;100.00;99018.42;102976;1310;138777;-72
2022/11/10 08:49:33;;;;;;;75.80;32.80;;;;;;;7.76;100.00;99016.73;103644;1302;22582;-72
2022/11/10 08:52:21;;;;;;;72.40;30.40;;;;;;;7.79;100.00;99017.48;103165;1308;22858;-72
2022/11/10 08:55:07;;;;;;;74.30;33.50;;;;;;;7.84;100.00;99024.94;103198;1290;23432;-71
2022/11/10 08:58:02;;;;;;;73.00;31.30;;;;;;;7.87;100.00;99037.40;103101;1310;22546;-71
2022/11/10 09:00:50;;;;;;;76.90;33.50;;;;;;;7.90;100.00;99052.41;103048;1310;138258;-72
2022/11/10 09:03:42;;;;;;;77.60;33.00;;;;;;;7.93;100.00;99058.63;103383;1310;22458;-73
2022/11/10 09:06:30;;;;;;;72.60;33.90;;;;;;;7.96;100.00;99059.89;103255;1310;138287;-72
2022/11/10 09:09:19;;;;;;;74.80;32.80;;;;;;;7.99;100.00;99066.00;103171;1289;22875;-71
2022/11/10 09:12:05;;;;;;;73.60;31.80;;;;;;;8.01;100.00;99068.61;102988;1291;138569;-71
2022/11/10 09:14:50;;;;;;;69.70;29.40;;;;;;;8.03;100.00;99070.11;103171;1288;22519;-71
2022/11/10 09:17:37;;;;;;;69.80;30.60;;;;;;;8.06;100.00;99074.44;103109;1284;138775;-71
2022/11/10 09:20:22;;;;;;;71.10;30.40;;;;;;;8.10;100.00;99074.41;103236;1310;22503;-71
2022/11/10 09:23:13;;;;;;;72.40;30.80;;;;;;;8.14;100.00;99078.01;103055;1310;139163;-70
2022/11/10 09:25:58;;;;;;;75.70;32.00;;;;;;;8.20;100.00;99077.40;103494;1310;25323;-71
2022/11/10 09:28:44;;;;;;;73.60;29.80;;;;;;;8.25;100.00;99078.84;103088;1310;138548;-72
2022/11/10 09:31:29;;;;;;;73.20;30.60;;;;;;;8.31;100.00;99079.81;103092;1310;22523;-70
2022/11/10 09:34:15;;;;;;;75.00;31.00;;;;;;;8.36;100.00;99079.80;103118;1291;25260;-71
2022/11/10 09:37:01;;;;;;;68.40;30.10;;;;;;;8.43;100.00;99082.67;103296;1310;138862;-73
2022/11/10 09:39:46;;;;;;;73.70;30.70;;;;;;;8.49;100.00;99079.98;103205;1310;24254;-71
2022/11/10 09:42:38;;;;;;;73.80;31.40;;;;;;;8.57;100.00;99076.93;103071;1310;138406;-73
2022/11/10 09:45:38;;;;;;;78.30;32.60;;;;;;;8.65;100.00;99076.52;103041;1294;23059;-72
2022/11/10 09:48:29;;;;;;;70.90;30.60;;;;;;;8.72;100.00;99083.95;103111;1310;140582;-73
2022/11/10 09:51:32;;;;;;;65.10;29.50;;;;;;;8.78;100.00;99083.87;103024;1310;25725;-71
2022/11/10 09:54:52;;;;;;;68.10;28.10;;;;;;;8.83;100.00;99087.19;103138;1310;138388;-71
2022/11/10 09:57:37;;;;;;;71.90;30.50;;;;;;;8.88;100.00;99093.09;103415;1310;22484;-71
2022/11/10 10:00:22;;;;;;;74.00;31.60;;;;;;;8.93;100.00;99096.99;102883;1307;138433;-72
2022/11/10 10:03:16;;;;;;;71.40;31.60;;;;;;;8.98;100.00;99099.17;103066;1304;22473;-72
2022/11/10 10:06:09;;;;;;;73.30;30.40;;;;;;;9.04;100.00;99101.77;103053;1295;138702;-72
2022/11/10 10:09:01;;;;;;;66.60;29.90;;;;;;;9.10;100.00;99108.08;103080;1310;23871;-71
2022/11/10 10:12:08;;;;;;;60.80;27.60;;;;;;;9.16;100.00;99110.80;103066;1306;138575;-72
2022/11/10 10:15:04;;;;;;;58.60;26.40;;;;;;;9.18;100.00;99113.67;103305;1284;23694;-71
2022/11/10 10:18:09;;;;;;;65.00;28.20;;;;;;;9.19;99.95;99119.73;102989;1305;138549;-71
2022/11/10 10:21:32;;;;;;;65.20;28.70;;;;;;;9.18;99.73;99127.46;103440;1308;22469;-71
2022/11/10 10:24:20;;;;;;;61.20;27.10;;;;;;;9.18;99.60;99132.44;103024;1310;138404;-72
2022/11/10 10:27:11;;;;;;;58.50;28.60;;;;;;;9.17;99.64;99129.10;103044;1302;22512;-72
2022/11/10 10:29:56;;;;;;;61.20;28.20;;;;;;;9.20;99.72;99134.39;103034;1309;138343;-72
2022/11/10 10:32:41;;;;;;;69.70;31.60;;;;;;;9.23;99.81;99138.52;103028;1310;25463;-71
2022/11/10 10:35:27;;;;;;;66.40;27.30;;;;;;;9.26;99.76;99134.98;103027;1310;138349;-72
2022/11/10 10:38:32;;;;;;;64.30;28.30;;;;;;;9.30;99.69;99136.50;103055;1303;22629;-74
2022/11/10 10:41:28;;;;;;;67.80;29.50;;;;;;;9.33;99.26;99136.65;102893;1310;138579;-71
2022/11/10 10:44:18;;;;;;;66.60;27.80;;;;;;;9.36;99.20;99141.34;103027;1312;24704;-71
2022/11/10 10:47:03;;;;;;;59.80;28.40;;;;;;;9.40;99.00;99140.91;102955;1313;139224;-71
2022/11/10 10:49:48;;;;;;;61.90;27.10;;;;;;;9.42;98.87;99145.11;103070;1310;22519;-71
2022/11/10 10:52:33;;;;;;;70.90;29.50;;;;;;;9.42;99.02;99142.67;103041;1311;22498;-73
2022/11/10 10:55:18;;;;;;;63.90;27.40;;;;;;;9.45;99.09;99141.02;103073;1313;22465;-73
2022/11/10 10:58:17;;;;;;;62.90;26.80;;;;;;;9.46;98.68;99141.65;103085;1303;24327;-73
2022/11/10 11:01:15;;;;;;;58.20;27.70;;;;;;;9.45;98.48;99146.76;103227;1311;22475;-73
2022/11/10 11:04:05;;;;;;;55.60;25.60;;;;;;;9.44;98.43;99148.23;103043;1313;25364;-73
2022/11/10 11:06:58;;;;;;;59.80;25.80;;;;;;;9.44;98.20;99145.55;102978;1298;138327;-72
2022/11/10 11:09:44;;;;;;;66.00;29.70;;;;;;;9.45;98.09;99146.80;103061;1310;25674;-72
2022/11/10 11:12:33;;;;;;;69.40;28.80;;;;;;;9.49;98.43;99150.75;103086;1305;138529;-72
2022/11/10 11:15:28;;;;;;;59.10;26.50;;;;;;;9.52;98.39;99155.02;103076;1310;22456;-71
2022/11/10 11:18:16;;;;;;;62.90;27.60;;;;;;;9.52;98.05;99160.35;102982;1313;138828;-73
2022/11/10 11:21:27;;;;;;;62.20;27.70;;;;;;;9.52;98.22;99159.05;103225;1310;24124;-74
2022/11/10 11:24:12;;;;;;;56.80;24.20;;;;;;;9.53;98.06;99152.77;102906;1312;139253;-72
2022/11/10 11:27:04;;;;;;;65.50;27.90;;;;;;;9.55;98.30;99152.80;103080;1313;22525;-72
2022/11/10 11:30:00;;;;;;;60.90;28.70;;;;;;;9.58;98.38;99152.88;103027;1311;24275;-72
2022/11/10 11:33:13;;;;;;;60.70;27.30;;;;;;;9.64;98.71;99152.00;103034;1310;22473;-72
2022/11/10 11:36:07;;;;;;;59.20;26.60;;;;;;;9.72;99.04;99150.44;103165;1299;22482;-71
2022/11/10 11:39:04;;;;;;;54.70;25.60;;;;;;;9.77;98.69;99159.14;102998;1310;22577;-73
2022/11/10 11:42:14;;;;;;;56.90;25.00;;;;;;;9.81;98.72;99161.78;103010;1310;24314;-73
2022/11/10 11:45:12;;;;;;;59.60;27.30;;;;;;;9.82;98.53;99171.61;103018;1298;25355;-72
2022/11/10 11:48:29;;;;;;;56.50;25.30;;;;;;;9.82;98.31;99175.88;103138;1308;25241;-73
2022/11/10 11:51:25;;;;;;;57.20;25.80;;;;;;;9.85;98.68;99183.52;102962;1310;25373;-74
2022/11/10 11:54:16;;;;;;;57.90;26.60;;;;;;;9.86;98.84;99184.92;102907;1310;22473;-73
2022/11/10 11:57:09;;;;;;;57.60;25.80;;;;;;;9.87;98.67;99189.14;102906;1310;24389;-73
2022/11/10 12:00:18;;;;;;;51.50;23.00;;;;;;;9.87;98.23;99184.95;102898;1307;23877;-72
2022/11/10 12:03:12;;;;;;;58.60;26.20;;;;;;;9.88;97.87;99183.29;102995;1305;22484;-75
2022/11/10 12:06:29;;;;;;;61.10;26.70;;;;;;;9.89;97.80;99180.38;102866;1310;22531;-75
2022/11/10 12:09:30;;;;;;;59.60;26.50;;;;;;;9.92;98.13;99185.14;103138;1311;22465;-73
2022/11/10 12:12:35;;;;;;;58.30;27.30;;;;;;;9.97;98.09;99182.07;103200;1313;24294;-72
2022/11/10 12:15:33;;;;;;;54.90;24.40;;;;;;;9.98;97.51;99186.66;103015;1312;22598;-72
2022/11/10 12:19:02;;;;;;;60.90;26.60;;;;;;;9.97;97.37;99190.22;106046;1300;23236;-73
2022/11/10 12:22:17;;;;;;;64.40;27.40;;;;;;;9.95;97.10;99195.48;106500;1313;22593;-72
2022/11/10 12:25:26;;;;;;;53.40;24.70;;;;;;;9.96;97.20;99200.53;106402;1311;139140;-73
2022/11/10 12:28:17;;;;;;;59.70;27.30;;;;;;;10.01;97.28;99199.66;103360;1310;22481;-73
2022/11/10 12:31:09;;;;;;;52.10;26.00;;;;;;;10.08;97.23;99198.33;102941;1312;138620;-75
2022/11/10 12:34:03;;;;;;;62.80;27.30;;;;;;;10.15;97.15;99200.23;102893;1310;26174;-77
2022/11/10 12:36:50;;;;;;;54.70;26.20;;;;;;;10.21;96.62;99198.60;102838;1311;138615;-72
2022/11/10 12:40:01;;;;;;;56.90;26.20;;;;;;;10.27;96.47;99203.02;103027;1310;22512;-73
2022/11/10 12:42:58;;;;;;;55.70;26.30;;;;;;;10.31;95.99;99207.85;102846;1313;138589;-73
2022/11/10 12:45:48;;;;;;;64.10;28.00;;;;;;;10.34;96.01;99210.56;103041;1311;25226;-73
2022/11/10 12:48:52;;;;;;;58.00;27.90;;;;;;;10.36;95.65;99207.64;102825;1312;138547;-75
2022/11/10 12:51:42;;;;;;;62.20;28.60;;;;;;;10.38;95.46;99210.85;102986;1310;22535;-74
2022/11/10 12:54:28;;;;;;;61.30;28.60;;;;;;;10.39;95.32;99210.34;103003;1310;25360;-74
2022/11/10 12:57:22;;;;;;;61.30;29.20;;;;;;;10.39;95.33;99215.91;102139;1297;1194342;-76